Time;durP1;ratioP1;P1;durP2;ratioP2;P2;SDS_P1;SDS_P2;PMS_P1;PMS_P2;Temp;Humidity;BMP_temperature;BMP_pressure;BME280_temperature;BME280_humidity;BME280_pressure;Samples;Min_cycle;Max_cycle;Signal;HPM_P1;HPM_P2
2022/01/30 00:00:08;;;;;;;;;;;20.50;30.20;;;;;;685893;28;1457;-83
2022/01/30 00:00:31;;;;;;;;;;;20.50;31.40;;;;;;685744;28;842;-83
2022/01/30 00:00:51;;;;;;;;;;;20.50;30.30;;;;;;685784;28;913;-82
2022/01/30 00:01:12;;;;;;;;;;;20.50;30.30;;;;;;686538;28;771;-84
2022/01/30 00:01:33;;;;;;;;;;;20.50;30.30;;;;;;688437;28;1294;-86
2022/01/30 00:01:54;;;;;;;;;;;20.50;30.20;;;;;;688465;28;845;-82
2022/01/30 00:02:14;;;;;;;;;;;20.50;30.20;;;;;;688460;28;890;-83
2022/01/30 00:02:35;;;;;;;;;;;20.50;30.10;;;;;;688654;28;944;-83
2022/01/30 00:02:55;;;;;;;;;;;20.50;30.20;;;;;;688454;28;803;-85
2022/01/30 00:03:16;;;;;;;;;;;20.50;30.20;;;;;;688454;28;1447;-83
2022/01/30 00:03:37;;;;;;;;;;;20.50;30.20;;;;;;688551;28;894;-83
2022/01/30 00:03:57;;;;;;;;;;;20.50;30.10;;;;;;688538;28;835;-87
2022/01/30 00:04:18;;;;;;;;;;;21.40;30.60;;;;;;688388;28;1173;-84
2022/01/30 00:04:38;;;;;;;;;;;20.50;30.10;;;;;;688440;28;1102;-85
2022/01/30 00:04:59;;;;;;;;;;;20.50;30.20;;;;;;688590;28;898;-85
2022/01/30 00:05:19;;;;;;;;;;;20.50;30.20;;;;;;685740;28;1197;-87
2022/01/30 00:05:40;;;;;;;;;;;20.50;30.30;;;;;;685841;28;792;-84
2022/01/30 00:06:00;;;;;;;;;;;20.50;30.30;;;;;;685777;28;1241;-86
2022/01/30 00:06:21;;;;;;;;;;;20.50;30.30;;;;;;685456;28;1255;-85
2022/01/30 00:06:42;;;;;;;;;;;20.50;30.30;;;;;;685690;28;1453;-84
2022/01/30 00:07:03;;;;;;;;;;;20.50;30.30;;;;;;686158;28;1328;-84
2022/01/30 00:07:23;;;;;;;;;;;20.50;30.40;;;;;;688497;28;901;-85
2022/01/30 00:07:44;;;;;;;;;;;20.50;30.40;;;;;;688350;28;1998;-84
2022/01/30 00:08:04;;;;;;;;;;;20.50;30.30;;;;;;685535;28;997;-85
2022/01/30 00:08:25;;;;;;;;;;;20.50;30.50;;;;;;685727;28;1295;-85
2022/01/30 00:08:45;;;;;;;;;;;20.50;30.40;;;;;;685733;28;787;-82
2022/01/30 00:09:08;;;;;;;;;;;20.50;30.50;;;;;;685847;28;792;-85
2022/01/30 00:09:29;;;;;;;;;;;20.50;30.50;;;;;;685826;28;830;-85
2022/01/30 00:09:50;;;;;;;;;;;20.50;30.50;;;;;;686256;28;1480;-85
2022/01/30 00:10:13;;;;;;;;;;;20.50;30.50;;;;;;685720;28;1490;-80
2022/01/30 00:10:39;;;;;;;;;;;20.50;30.70;;;;;;682881;29;1509;-84
2022/01/30 00:11:07;;;;;;;;;;;20.50;30.50;;;;;;682908;29;1595;-84
2022/01/30 00:11:32;;;;;;;;;;;20.50;30.40;;;;;;683219;29;874;-80
2022/01/30 00:11:57;;;;;;;;;;;20.50;30.60;;;;;;680598;29;1280;-86
2022/01/30 00:12:25;;;;;;;;;;;20.50;30.50;;;;;;683028;29;1339;-86
2022/01/30 00:12:58;;;;;;;;;;;20.50;30.50;;;;;;683889;28;888;-84
2022/01/30 00:13:20;;;;;;;;;;;20.50;30.30;;;;;;685869;28;842;-85
2022/01/30 00:13:41;;;;;;;;;;;20.50;30.40;;;;;;683854;28;1274;-86
2022/01/30 00:14:04;;;;;;;;;;;20.50;30.50;;;;;;685909;28;786;-83
2022/01/30 00:14:27;;;;;;;;;;;20.50;30.50;;;;;;685712;28;946;-84
2022/01/30 00:14:53;;;;;;;;;;;20.50;30.30;;;;;;685761;28;842;-84
2022/01/30 00:15:15;;;;;;;;;;;20.50;30.40;;;;;;685770;28;810;-86
2022/01/30 00:15:56;;;;;;;;;;;20.50;30.40;;;;;;688450;28;1481;-86
2022/01/30 00:16:20;;;;;;;;;;;20.50;30.40;;;;;;688339;28;1434;-84
2022/01/30 00:16:41;;;;;;;;;;;20.50;30.40;;;;;;688520;28;1256;-84
2022/01/30 00:17:12;;;;;;;;;;;20.50;30.50;;;;;;688539;28;814;-86
2022/01/30 00:17:39;;;;;;;;;;;20.50;30.50;;;;;;684008;28;1336;-86
2022/01/30 00:18:10;;;;;;;;;;;20.50;30.50;;;;;;683382;28;866;-83
2022/01/30 00:18:49;;;;;;;;;;;20.50;30.30;;;;;;685855;28;1411;-82
2022/01/30 00:19:21;;;;;;;;;;;20.50;30.30;;;;;;686013;28;806;-83
2022/01/30 00:19:46;;;;;;;;;;;20.50;30.20;;;;;;685520;28;1286;-85
2022/01/30 00:20:12;;;;;;;;;;;20.50;30.20;;;;;;685843;28;1343;-84
2022/01/30 00:20:35;;;;;;;;;;;20.50;30.40;;;;;;683182;28;1167;-84
2022/01/30 00:21:14;;;;;;;;;;;20.50;30.40;;;;;;679016;29;1139;-83
2022/01/30 00:21:42;;;;;;;;;;;20.50;30.20;;;;;;676727;29;983;-82
2022/01/30 00:22:45;;;;;;;;;;;20.50;30.10;;;;;;677902;29;1468;-83
2022/01/30 00:23:14;;;;;;;;;;;20.50;30.40;;;;;;677981;29;1013;-84
2022/01/30 00:23:39;;;;;;;;;;;20.50;30.50;;;;;;675247;29;1195;-86
2022/01/30 00:24:37;;;;;;;;;;;20.50;30.10;;;;;;691269;28;632;-85
2022/01/30 00:25:15;;;;;;;;;;;20.50;30.20;;;;;;688460;28;1253;-82
2022/01/30 00:25:47;;;;;;;;;;;20.50;30.30;;;;;;689962;28;1629;-84
2022/01/30 00:26:09;;;;;;;;;;;20.50;31.00;;;;;;686791;28;1486;-83
2022/01/30 00:26:32;;;;;;;;;;;20.50;30.70;;;;;;685764;28;842;-82
2022/01/30 00:26:57;;;;;;;;;;;20.50;30.90;;;;;;685897;28;795;-82
2022/01/30 00:27:26;;;;;;;;;;;20.50;31.10;;;;;;686050;28;985;-83
2022/01/30 00:28:00;;;;;;;;;;;20.50;31.30;;;;;;680329;29;1964;-82
2022/01/30 00:28:23;;;;;;;;;;;20.50;31.70;;;;;;684599;28;827;-85
2022/01/30 00:28:44;;;;;;;;;;;20.50;31.50;;;;;;683110;28;1224;-82
2022/01/30 00:29:05;;;;;;;;;;;20.50;31.80;;;;;;684040;28;853;-83
2022/01/30 00:29:25;;;;;;;;;;;20.50;31.80;;;;;;685925;28;835;-83
2022/01/30 00:29:46;;;;;;;;;;;20.50;31.60;;;;;;685874;28;1329;-82
2022/01/30 00:30:09;;;;;;;;;;;20.60;31.70;;;;;;686096;28;1426;-83
2022/01/30 00:30:34;;;;;;;;;;;20.60;32.00;;;;;;683676;28;917;-83
2022/01/30 00:30:55;;;;;;;;;;;20.60;31.40;;;;;;685737;28;929;-82
2022/01/30 00:31:19;;;;;;;;;;;20.60;31.40;;;;;;685611;28;1298;-80
2022/01/30 00:31:40;;;;;;;;;;;20.50;31.30;;;;;;685123;28;1376;-84
2022/01/30 00:32:00;;;;;;;;;;;20.50;31.30;;;;;;685980;28;794;-82
2022/01/30 00:32:22;;;;;;;;;;;20.50;31.40;;;;;;687229;28;937;-83
2022/01/30 00:32:42;;;;;;;;;;;20.50;31.50;;;;;;688571;28;826;-84
2022/01/30 00:33:03;;;;;;;;;;;20.60;31.50;;;;;;689466;28;850;-83
2022/01/30 00:33:23;;;;;;;;;;;20.60;31.30;;;;;;690870;28;870;-80
2022/01/30 00:33:44;;;;;;;;;;;20.50;31.40;;;;;;688690;28;1279;-81
2022/01/30 00:34:05;;;;;;;;;;;20.60;31.40;;;;;;688801;28;790;-78
2022/01/30 00:34:25;;;;;;;;;;;20.50;31.20;;;;;;688351;28;913;-78
2022/01/30 00:34:46;;;;;;;;;;;20.60;31.30;;;;;;688553;28;822;-78
2022/01/30 00:35:09;;;;;;;;;;;20.60;31.20;;;;;;688595;28;894;-79
2022/01/30 00:35:30;;;;;;;;;;;20.60;31.10;;;;;;688503;28;857;-79
2022/01/30 00:35:51;;;;;;;;;;;20.60;31.10;;;;;;688499;28;845;-79
2022/01/30 00:36:11;;;;;;;;;;;20.60;32.30;;;;;;688487;28;902;-79
2022/01/30 00:36:32;;;;;;;;;;;20.60;31.00;;;;;;688766;28;866;-79
2022/01/30 00:36:52;;;;;;;;;;;20.60;31.20;;;;;;688485;28;814;-78
2022/01/30 00:37:13;;;;;;;;;;;20.50;30.80;;;;;;688472;28;886;-78
2022/01/30 00:37:39;;;;;;;;;;;20.50;30.50;;;;;;688590;28;791;-79
2022/01/30 00:38:00;;;;;;;;;;;20.50;30.30;;;;;;688490;28;878;-80
2022/01/30 00:38:22;;;;;;;;;;;20.50;30.30;;;;;;688528;28;819;-80
2022/01/30 00:38:43;;;;;;;;;;;20.50;30.50;;;;;;688709;28;866;-79
2022/01/30 00:39:03;;;;;;;;;;;20.60;30.60;;;;;;688682;28;826;-80
2022/01/30 00:39:24;;;;;;;;;;;20.50;30.60;;;;;;688777;28;811;-80
2022/01/30 00:39:44;;;;;;;;;;;20.60;30.50;;;;;;688701;28;775;-79
2022/01/30 00:40:06;;;;;;;;;;;20.50;30.20;;;;;;688690;28;1423;-81
2022/01/30 00:40:26;;;;;;;;;;;20.50;30.10;;;;;;688388;28;1261;-81
2022/01/30 00:40:48;;;;;;;;;;;20.50;30.20;;;;;;685957;28;846;-81
2022/01/30 00:41:08;;;;;;;;;;;20.50;30.20;;;;;;685875;28;890;-78
2022/01/30 00:41:29;;;;;;;;;;;20.50;30.10;;;;;;685782;28;858;-79
2022/01/30 00:41:50;;;;;;;;;;;20.50;30.20;;;;;;685865;28;819;-78
2022/01/30 00:42:10;;;;;;;;;;;20.50;30.20;;;;;;686230;28;901;-79
2022/01/30 00:42:31;;;;;;;;;;;20.50;30.10;;;;;;688685;28;790;-78
2022/01/30 00:42:51;;;;;;;;;;;20.50;30.10;;;;;;688703;28;945;-81
2022/01/30 00:43:12;;;;;;;;;;;20.50;30.10;;;;;;689678;28;1851;-83
2022/01/30 00:43:32;;;;;;;;;;;20.50;30.20;;;;;;688411;28;1426;-82
2022/01/30 00:43:53;;;;;;;;;;;20.50;30.10;;;;;;688716;28;1252;-83
2022/01/30 00:44:14;;;;;;;;;;;20.50;30.20;;;;;;685650;28;783;-80
2022/01/30 00:44:34;;;;;;;;;;;20.50;30.10;;;;;;685881;28;807;-81
2022/01/30 00:44:55;;;;;;;;;;;20.50;30.10;;;;;;685735;28;1344;-81
2022/01/30 00:45:16;;;;;;;;;;;20.50;31.20;;;;;;686075;28;830;-79
2022/01/30 00:45:36;;;;;;;;;;;20.50;30.10;;;;;;688851;28;842;-80
2022/01/30 00:45:57;;;;;;;;;;;20.50;30.20;;;;;;690839;28;818;-81
2022/01/30 00:46:18;;;;;;;;;;;20.50;30.10;;;;;;688555;28;1321;-81
2022/01/30 00:46:40;;;;;;;;;;;20.50;30.10;;;;;;688738;28;901;-79
2022/01/30 00:47:03;;;;;;;;;;;20.50;30.10;;;;;;688799;28;818;-79
2022/01/30 00:47:23;;;;;;;;;;;20.50;30.10;;;;;;688683;28;818;-80
2022/01/30 00:47:44;;;;;;;;;;;20.50;30.00;;;;;;688628;28;1957;-81
2022/01/30 00:48:05;;;;;;;;;;;20.50;30.10;;;;;;688717;28;1314;-79
2022/01/30 00:48:26;;;;;;;;;;;20.50;30.00;;;;;;688540;28;1396;-80
2022/01/30 00:48:46;;;;;;;;;;;20.50;30.00;;;;;;688762;28;866;-80
2022/01/30 00:49:07;;;;;;;;;;;20.50;30.10;;;;;;688742;28;1371;-80
2022/01/30 00:49:28;;;;;;;;;;;20.50;30.00;;;;;;688615;28;1424;-81
2022/01/30 00:49:48;;;;;;;;;;;20.50;30.00;;;;;;688669;28;833;-81
2022/01/30 00:50:09;;;;;;;;;;;20.50;30.00;;;;;;688518;28;1574;-82
2022/01/30 00:50:30;;;;;;;;;;;20.50;30.00;;;;;;688469;28;877;-80
2022/01/30 00:50:50;;;;;;;;;;;20.50;30.00;;;;;;688409;28;969;-80
2022/01/30 00:51:11;;;;;;;;;;;20.50;30.10;;;;;;690768;28;1582;-81
2022/01/30 00:51:31;;;;;;;;;;;20.50;30.10;;;;;;691024;28;1410;-80
2022/01/30 00:51:52;;;;;;;;;;;20.50;30.10;;;;;;690943;28;878;-80
2022/01/30 00:52:16;;;;;;;;;;;20.50;30.00;;;;;;688611;28;937;-79
2022/01/30 00:52:37;;;;;;;;;;;20.50;30.10;;;;;;688355;28;1381;-79
2022/01/30 00:52:58;;;;;;;;;;;20.50;30.00;;;;;;689886;28;1350;-78
2022/01/30 00:53:19;;;;;;;;;;;20.50;30.00;;;;;;694003;28;869;-79
2022/01/30 00:53:40;;;;;;;;;;;20.50;30.00;;;;;;693979;28;779;-79
2022/01/30 00:54:00;;;;;;;;;;;20.50;30.00;;;;;;693873;28;869;-79
2022/01/30 00:54:21;;;;;;;;;;;20.50;30.00;;;;;;693339;28;1377;-79
2022/01/30 00:54:41;;;;;;;;;;;20.50;30.00;;;;;;691419;28;950;-80
2022/01/30 00:55:03;;;;;;;;;;;20.50;30.00;;;;;;691397;28;949;-81
2022/01/30 00:55:24;;;;;;;;;;;20.50;30.00;;;;;;691314;28;849;-82
2022/01/30 00:55:45;;;;;;;;;;;20.50;30.00;;;;;;691304;28;1289;-81
2022/01/30 00:56:07;;;;;;;;;;;20.50;30.00;;;;;;691478;28;771;-82
2022/01/30 00:56:28;;;;;;;;;;;20.50;30.00;;;;;;691432;28;888;-82
2022/01/30 00:56:49;;;;;;;;;;;20.50;30.00;;;;;;691374;28;897;-82
2022/01/30 00:57:10;;;;;;;;;;;20.50;30.00;;;;;;691441;28;1386;-82
2022/01/30 00:57:30;;;;;;;;;;;20.50;31.10;;;;;;691254;28;1301;-84
2022/01/30 00:57:51;;;;;;;;;;;20.50;30.00;;;;;;691350;28;873;-82
2022/01/30 00:58:12;;;;;;;;;;;20.50;30.00;;;;;;691287;28;1381;-81
2022/01/30 00:58:36;;;;;;;;;;;20.50;30.00;;;;;;691481;28;850;-82
2022/01/30 00:58:56;;;;;;;;;;;20.50;30.00;;;;;;691367;28;799;-80
2022/01/30 00:59:17;;;;;;;;;;;20.50;29.90;;;;;;691316;28;1389;-78
2022/01/30 00:59:37;;;;;;;;;;;20.50;29.90;;;;;;691467;28;845;-80
2022/01/30 00:59:58;;;;;;;;;;;20.50;30.00;;;;;;691537;28;795;-79
2022/01/30 01:00:18;;;;;;;;;;;20.50;29.90;;;;;;691412;28;849;-80
2022/01/30 01:00:39;;;;;;;;;;;20.50;29.90;;;;;;691488;28;794;-80
2022/01/30 01:01:00;;;;;;;;;;;20.50;29.90;;;;;;690978;28;858;-81
2022/01/30 01:01:20;;;;;;;;;;;20.50;29.90;;;;;;691052;28;858;-80
2022/01/30 01:01:41;;;;;;;;;;;20.50;29.90;;;;;;691220;28;818;-82
2022/01/30 01:02:02;;;;;;;;;;;20.50;29.90;;;;;;691340;28;766;-81
2022/01/30 01:02:22;;;;;;;;;;;20.50;29.90;;;;;;688356;28;1424;-80
2022/01/30 01:02:43;;;;;;;;;;;20.50;29.80;;;;;;688737;28;1287;-82
2022/01/30 01:03:04;;;;;;;;;;;20.50;29.70;;;;;;688451;28;1604;-80
2022/01/30 01:03:25;;;;;;;;;;;20.50;29.80;;;;;;688329;28;799;-81
2022/01/30 01:03:45;;;;;;;;;;;20.50;29.80;;;;;;688444;28;811;-80
2022/01/30 01:04:06;;;;;;;;;;;20.50;29.90;;;;;;688865;28;551;-80
2022/01/30 01:04:26;;;;;;;;;;;20.50;29.80;;;;;;691157;28;849;-81
2022/01/30 01:04:47;;;;;;;;;;;20.40;29.70;;;;;;691203;28;854;-80
2022/01/30 01:05:08;;;;;;;;;;;20.50;29.80;;;;;;691424;28;790;-81
2022/01/30 01:05:30;;;;;;;;;;;20.50;29.80;;;;;;691313;28;881;-80
2022/01/30 01:05:52;;;;;;;;;;;20.40;29.80;;;;;;690527;28;1645;-79
2022/01/30 01:06:12;;;;;;;;;;;20.50;29.70;;;;;;689396;28;1624;-80
2022/01/30 01:06:33;;;;;;;;;;;20.40;29.70;;;;;;689407;28;1470;-80
2022/01/30 01:06:53;;;;;;;;;;;20.40;29.70;;;;;;690995;28;1379;-80
2022/01/30 01:07:20;;;;;;;;;;;20.50;29.60;;;;;;691121;28;1324;-80
2022/01/30 01:07:44;;;;;;;;;;;20.50;29.60;;;;;;691180;28;888;-80
2022/01/30 01:08:52;;;;;;;;;;;20.50;29.70;;;;;;688742;28;1537;-80
2022/01/30 01:08:54;;;;;;;;;;;20.40;29.70;;;;;;692733;28;1309;-80
2022/01/30 01:09:16;;;;;;;;;;;20.50;29.60;;;;;;688650;28;858;-80
2022/01/30 01:09:38;;;;;;;;;;;20.50;29.60;;;;;;688707;28;846;-81
2022/01/30 01:10:14;;;;;;;;;;;20.50;29.60;;;;;;688349;28;1200;-78
2022/01/30 01:11:13;;;;;;;;;;;20.40;29.60;;;;;;688488;28;925;-82
2022/01/30 01:12:08;;;;;;;;;;;20.40;29.60;;;;;;688429;28;1731;-83
2022/01/30 01:13:10;;;;;;;;;;;20.20;29.50;;;;;;689667;28;1343;-84
2022/01/30 01:13:27;;;;;;;;;;;20.40;29.50;;;;;;688435;28;1228;-83
2022/01/30 01:23:46;;;;;;;;;;;20.40;29.40;;;;;;688466;28;724;-81
2022/01/30 01:24:07;;;;;;;;;;;20.40;29.50;;;;;;688349;28;838;-82
2022/01/30 01:24:28;;;;;;;;;;;20.40;29.30;;;;;;688025;28;1390;-83
2022/01/30 01:24:48;;;;;;;;;;;20.30;29.30;;;;;;688288;28;988;-81
2022/01/30 01:25:09;;;;;;;;;;;20.30;29.30;;;;;;688465;28;842;-81
2022/01/30 01:25:30;;;;;;;;;;;20.40;29.40;;;;;;688259;28;1235;-81
2022/01/30 01:25:50;;;;;;;;;;;20.30;29.30;;;;;;688260;28;795;-80
2022/01/30 01:26:12;;;;;;;;;;;20.30;29.30;;;;;;688338;28;842;-81
2022/01/30 01:26:33;;;;;;;;;;;20.30;29.40;;;;;;688281;28;1401;-80
2022/01/30 01:26:53;;;;;;;;;;;20.30;29.30;;;;;;688265;28;866;-82
2022/01/30 01:27:14;;;;;;;;;;;20.40;29.30;;;;;;684875;28;1233;-82
2022/01/30 01:27:34;;;;;;;;;;;20.30;29.20;;;;;;685793;28;851;-81
2022/01/30 01:27:55;;;;;;;;;;;20.30;29.20;;;;;;685664;28;1902;-81
2022/01/30 01:28:15;;;;;;;;;;;20.40;29.30;;;;;;685671;28;740;-80
2022/01/30 01:28:36;;;;;;;;;;;20.30;29.20;;;;;;685689;28;1349;-81
2022/01/30 01:28:58;;;;;;;;;;;20.40;29.30;;;;;;685816;28;799;-83
2022/01/30 01:29:19;;;;;;;;;;;20.40;29.30;;;;;;685527;28;1054;-82
2022/01/30 01:29:39;;;;;;;;;;;20.40;29.30;;;;;;685758;28;850;-84
2022/01/30 01:30:00;;;;;;;;;;;20.30;29.20;;;;;;685577;28;776;-84
2022/01/30 01:30:20;;;;;;;;;;;20.30;29.20;;;;;;683919;28;1557;-82
2022/01/30 01:30:41;;;;;;;;;;;20.40;29.20;;;;;;683286;29;965;-79
2022/01/30 01:31:02;;;;;;;;;;;20.30;29.20;;;;;;683082;29;823;-82
2022/01/30 01:31:22;;;;;;;;;;;20.30;29.30;;;;;;682941;29;808;-81
2022/01/30 01:31:43;;;;;;;;;;;20.40;29.20;;;;;;682967;29;1255;-82
2022/01/30 01:32:04;;;;;;;;;;;20.40;29.30;;;;;;683311;28;858;-81
2022/01/30 01:32:24;;;;;;;;;;;20.30;29.20;;;;;;685622;28;909;-80
2022/01/30 01:32:45;;;;;;;;;;;20.30;29.30;;;;;;685624;28;792;-78
2022/01/30 01:33:06;;;;;;;;;;;20.30;29.30;;;;;;685713;28;846;-80
2022/01/30 01:33:39;;;;;;;;;;;20.30;29.30;;;;;;685618;28;835;-80
2022/01/30 01:34:59;;;;;;;;;;;20.30;29.30;;;;;;685504;28;799;-81
2022/01/30 01:35:20;;;;;;;;;;;20.30;29.20;;;;;;686584;28;1662;-82
2022/01/30 01:35:41;;;;;;;;;;;20.30;29.30;;;;;;688284;28;1762;-86
2022/01/30 01:36:02;;;;;;;;;;;20.30;29.30;;;;;;685666;28;1385;-82
2022/01/30 01:36:23;;;;;;;;;;;20.30;29.20;;;;;;685574;28;795;-81
2022/01/30 01:36:44;;;;;;;;;;;20.30;29.20;;;;;;685492;28;1768;-83
2022/01/30 01:37:07;;;;;;;;;;;20.30;29.30;;;;;;685663;28;815;-82
2022/01/30 01:37:28;;;;;;;;;;;20.30;29.10;;;;;;685682;28;866;-83
2022/01/30 01:37:53;;;;;;;;;;;20.30;29.10;;;;;;682839;28;838;-83
2022/01/30 01:38:15;;;;;;;;;;;20.30;29.30;;;;;;683302;29;788;-82
2022/01/30 01:38:36;;;;;;;;;;;20.30;29.20;;;;;;683609;29;830;-84
2022/01/30 01:38:56;;;;;;;;;;;20.30;29.10;;;;;;683375;28;1135;-85
2022/01/30 01:39:17;;;;;;;;;;;20.30;29.10;;;;;;683916;28;950;-84
2022/01/30 01:39:37;;;;;;;;;;;20.30;29.10;;;;;;684621;28;815;-83
2022/01/30 01:39:58;;;;;;;;;;;20.30;29.10;;;;;;686714;28;976;-85
2022/01/30 01:40:18;;;;;;;;;;;20.30;29.10;;;;;;686304;28;1254;-81
2022/01/30 01:40:40;;;;;;;;;;;20.30;29.20;;;;;;683812;29;1472;-81
2022/01/30 01:41:00;;;;;;;;;;;20.30;29.10;;;;;;683330;29;953;-81
2022/01/30 01:41:23;;;;;;;;;;;20.30;29.10;;;;;;683201;29;851;-81
2022/01/30 01:41:44;;;;;;;;;;;20.30;29.10;;;;;;683979;29;830;-82
2022/01/30 01:42:04;;;;;;;;;;;20.30;29.10;;;;;;684288;29;1708;-82
2022/01/30 01:42:29;;;;;;;;;;;20.30;29.00;;;;;;685289;28;1465;-83
2022/01/30 01:42:50;;;;;;;;;;;20.30;29.00;;;;;;687633;28;804;-82
2022/01/30 01:43:10;;;;;;;;;;;20.60;29.10;;;;;;687989;28;1048;-83
2022/01/30 01:43:31;;;;;;;;;;;20.30;29.00;;;;;;684593;29;1478;-84
2022/01/30 01:43:52;;;;;;;;;;;20.30;29.00;;;;;;681539;29;843;-84
2022/01/30 01:44:13;;;;;;;;;;;20.30;29.10;;;;;;681752;29;907;-84
2022/01/30 01:44:45;;;;;;;;;;;20.30;29.00;;;;;;681746;29;1042;-84
2022/01/30 01:45:07;;;;;;;;;;;20.30;28.90;;;;;;682084;29;1350;-84
2022/01/30 01:45:33;;;;;;;;;;;20.30;29.00;;;;;;684711;28;1268;-84
2022/01/30 01:45:56;;;;;;;;;;;20.30;28.80;;;;;;684826;29;854;-83
2022/01/30 01:46:22;;;;;;;;;;;20.30;28.90;;;;;;682078;28;875;-84
2022/01/30 01:46:43;;;;;;;;;;;20.30;29.00;;;;;;682546;29;941;-83
2022/01/30 01:47:04;;;;;;;;;;;20.30;28.90;;;;;;681573;29;882;-82
2022/01/30 01:47:29;;;;;;;;;;;20.30;28.80;;;;;;681649;29;1070;-82
2022/01/30 01:47:50;;;;;;;;;;;20.30;28.90;;;;;;682514;29;1875;-82
2022/01/30 01:48:13;;;;;;;;;;;20.30;28.90;;;;;;681546;29;1622;-81
2022/01/30 01:48:36;;;;;;;;;;;20.30;28.90;;;;;;682989;29;855;-83
2022/01/30 01:48:56;;;;;;;;;;;20.30;28.80;;;;;;682493;29;1386;-82
2022/01/30 01:49:26;;;;;;;;;;;20.30;28.70;;;;;;683765;28;1814;-84
2022/01/30 01:49:49;;;;;;;;;;;20.30;28.80;;;;;;685903;28;877;-78
2022/01/30 01:50:17;;;;;;;;;;;20.30;28.80;;;;;;685995;28;815;-81
2022/01/30 01:50:43;;;;;;;;;;;20.30;28.90;;;;;;683843;28;934;-79
2022/01/30 01:51:14;;;;;;;;;;;20.30;28.80;;;;;;686075;28;1554;-81
2022/01/30 01:51:35;;;;;;;;;;;20.30;28.80;;;;;;685984;29;926;-80
2022/01/30 01:52:30;;;;;;;;;;;20.30;28.80;;;;;;686247;29;1466;-81
2022/01/30 01:52:45;;;;;;;;;;;20.30;28.80;;;;;;685663;29;1064;-79
2022/01/30 01:53:08;;;;;;;;;;;20.30;28.70;;;;;;689029;28;981;-79
2022/01/30 01:53:28;;;;;;;;;;;20.30;28.70;;;;;;688767;28;997;-80
2022/01/30 01:53:50;;;;;;;;;;;20.30;28.70;;;;;;687880;28;1083;-81
2022/01/30 01:54:10;;;;;;;;;;;20.30;28.70;;;;;;688957;28;1005;-81
2022/01/30 01:54:31;;;;;;;;;;;20.30;28.70;;;;;;688463;28;1112;-81
2022/01/30 01:54:53;;;;;;;;;;;20.30;28.70;;;;;;688382;28;1057;-79
2022/01/30 01:55:14;;;;;;;;;;;20.30;28.80;;;;;;688380;28;1968;-81
2022/01/30 01:55:35;;;;;;;;;;;20.30;28.70;;;;;;689400;28;1021;-80
2022/01/30 01:55:56;;;;;;;;;;;20.30;28.70;;;;;;691211;28;1241;-81
2022/01/30 01:56:17;;;;;;;;;;;20.30;28.70;;;;;;690902;28;1314;-81
2022/01/30 01:56:38;;;;;;;;;;;20.30;28.70;;;;;;690845;28;1372;-82
2022/01/30 01:56:59;;;;;;;;;;;20.30;28.70;;;;;;690707;28;993;-83
2022/01/30 01:57:20;;;;;;;;;;;20.30;28.70;;;;;;688189;28;1326;-83
2022/01/30 01:57:40;;;;;;;;;;;20.30;28.70;;;;;;687084;28;1805;-85
2022/01/30 01:58:01;;;;;;;;;;;20.30;28.80;;;;;;685171;29;879;-84
2022/01/30 01:58:26;;;;;;;;;;;20.30;28.70;;;;;;685196;29;907;-85
2022/01/30 01:58:47;;;;;;;;;;;20.30;28.70;;;;;;685199;29;907;-84
2022/01/30 01:59:07;;;;;;;;;;;20.30;28.70;;;;;;683420;29;1363;-85
2022/01/30 01:59:28;;;;;;;;;;;20.30;28.70;;;;;;682232;29;1251;-86
2022/01/30 01:59:49;;;;;;;;;;;20.30;28.70;;;;;;682503;29;1248;-84
2022/01/30 02:00:10;;;;;;;;;;;20.30;28.70;;;;;;682452;29;952;-85
2022/01/30 02:00:31;;;;;;;;;;;20.30;28.70;;;;;;684043;29;1683;-85
2022/01/30 02:00:52;;;;;;;;;;;20.30;28.80;;;;;;684419;28;1361;-83
2022/01/30 02:01:12;;;;;;;;;;;20.30;28.80;;;;;;682874;28;1317;-85
2022/01/30 02:01:33;;;;;;;;;;;20.20;28.70;;;;;;682680;29;792;-84
2022/01/30 02:01:54;;;;;;;;;;;20.30;28.80;;;;;;680097;29;1596;-83
2022/01/30 02:02:15;;;;;;;;;;;20.30;28.80;;;;;;680322;29;1674;-83
2022/01/30 02:02:36;;;;;;;;;;;20.30;28.90;;;;;;680421;29;812;-82
2022/01/30 02:02:56;;;;;;;;;;;20.30;29.70;;;;;;680723;29;776;-82
2022/01/30 02:03:19;;;;;;;;;;;20.30;28.90;;;;;;683090;29;839;-84
2022/01/30 02:03:40;;;;;;;;;;;20.30;29.00;;;;;;683584;28;859;-83
2022/01/30 02:04:00;;;;;;;;;;;20.30;28.90;;;;;;686241;28;860;-83
2022/01/30 02:04:21;;;;;;;;;;;20.30;28.90;;;;;;688193;28;968;-83
2022/01/30 02:04:42;;;;;;;;;;;20.30;28.90;;;;;;688316;28;783;-84
2022/01/30 02:05:05;;;;;;;;;;;20.20;28.80;;;;;;685570;28;870;-82
2022/01/30 02:05:27;;;;;;;;;;;20.30;28.80;;;;;;685604;28;838;-83
2022/01/30 02:05:53;;;;;;;;;;;20.30;28.90;;;;;;685522;28;898;-84
2022/01/30 02:06:17;;;;;;;;;;;20.20;28.90;;;;;;685227;28;1808;-83
2022/01/30 02:06:37;;;;;;;;;;;20.30;28.90;;;;;;686047;28;973;-83
2022/01/30 02:07:23;;;;;;;;;;;20.30;28.90;;;;;;690347;28;593;-83
2022/01/30 02:08:38;;;;;;;;;;;20.30;28.80;;;;;;691018;28;779;-89
2022/01/30 02:09:06;;;;;;;;;;;20.30;28.80;;;;;;690957;28;830;-84
2022/01/30 02:09:30;;;;;;;;;;;20.30;28.90;;;;;;690887;28;846;-82
2022/01/30 02:09:51;;;;;;;;;;;20.30;28.90;;;;;;690652;28;1397;-80
2022/01/30 02:10:19;;;;;;;;;;;20.20;28.80;;;;;;692993;28;1828;-80
2022/01/30 02:10:51;;;;;;;;;;;20.20;28.90;;;;;;693699;28;831;-80
2022/01/30 02:11:37;;;;;;;;;;;20.20;28.90;;;;;;693711;28;787;-80
2022/01/30 02:11:59;;;;;;;;;;;20.20;28.90;;;;;;693639;28;866;-81
2022/01/30 02:12:27;;;;;;;;;;;20.20;28.70;;;;;;693573;28;849;-79
2022/01/30 02:12:51;;;;;;;;;;;20.20;28.80;;;;;;693617;28;654;-80
2022/01/30 02:14:43;;;;;;;;;;;20.20;28.70;;;;;;693484;28;1433;-79
2022/01/30 02:24:14;;;;;;;;;;;20.20;28.70;;;;;;686132;28;1362;-80
2022/01/30 02:24:53;;;;;;;;;;;20.20;28.80;;;;;;690876;28;830;-79
2022/01/30 02:25:28;;;;;;;;;;;20.20;28.70;;;;;;689812;28;1725;-80
2022/01/30 02:25:57;;;;;;;;;;;20.20;28.70;;;;;;690730;28;1608;-79
2022/01/30 02:26:17;;;;;;;;;;;20.20;28.70;;;;;;690867;28;798;-79
2022/01/30 02:26:43;;;;;;;;;;;20.20;28.70;;;;;;691070;28;790;-84
2022/01/30 02:27:04;;;;;;;;;;;20.10;28.70;;;;;;692029;28;1402;-79
2022/01/30 02:27:31;;;;;;;;;;;20.20;28.70;;;;;;693530;28;880;-78
2022/01/30 02:27:56;;;;;;;;;;;20.20;28.80;;;;;;693600;28;1909;-79
2022/01/30 02:28:19;;;;;;;;;;;20.20;28.80;;;;;;690818;28;1118;-85
2022/01/30 02:28:39;;;;;;;;;;;20.20;28.80;;;;;;688227;28;1282;-81
2022/01/30 02:29:00;;;;;;;;;;;19.40;28.40;;;;;;688240;28;845;-83
2022/01/30 02:29:20;;;;;;;;;;;20.20;28.70;;;;;;688027;28;1367;-84
2022/01/30 02:29:41;;;;;;;;;;;20.20;28.70;;;;;;685460;28;1087;-84
2022/01/30 02:30:18;;;;;;;;;;;20.20;28.80;;;;;;685925;28;878;-86
2022/01/30 02:30:44;;;;;;;;;;;20.20;28.70;;;;;;688234;28;1141;-82
2022/01/30 02:31:10;;;;;;;;;;;20.20;28.60;;;;;;688694;28;1332;-83
2022/01/30 02:31:35;;;;;;;;;;;20.20;28.70;;;;;;688119;28;1581;-79
2022/01/30 02:31:58;;;;;;;;;;;20.20;28.70;;;;;;688228;28;834;-80
2022/01/30 02:32:19;;;;;;;;;;;20.20;28.70;;;;;;688149;28;865;-80
2022/01/30 02:32:39;;;;;;;;;;;20.20;28.60;;;;;;690922;28;822;-80
2022/01/30 02:33:00;;;;;;;;;;;20.20;28.60;;;;;;690841;28;912;-83
2022/01/30 02:33:22;;;;;;;;;;;20.20;28.80;;;;;;692168;28;838;-83
2022/01/30 02:33:43;;;;;;;;;;;20.20;28.80;;;;;;693544;28;802;-81
2022/01/30 02:34:03;;;;;;;;;;;20.20;28.70;;;;;;693693;28;830;-79
2022/01/30 02:34:28;;;;;;;;;;;20.20;28.50;;;;;;693605;28;810;-81
2022/01/30 02:34:48;;;;;;;;;;;20.20;28.60;;;;;;693668;28;821;-81
2022/01/30 02:35:09;;;;;;;;;;;20.20;28.60;;;;;;693651;28;964;-80
2022/01/30 02:35:30;;;;;;;;;;;20.20;28.60;;;;;;693602;28;881;-80
2022/01/30 02:35:51;;;;;;;;;;;20.20;28.70;;;;;;693610;28;802;-80
2022/01/30 02:36:11;;;;;;;;;;;20.20;28.70;;;;;;696270;28;901;-80
2022/01/30 02:36:32;;;;;;;;;;;20.20;28.50;;;;;;696408;28;909;-80
2022/01/30 02:36:52;;;;;;;;;;;20.20;28.70;;;;;;696393;28;821;-79
2022/01/30 02:37:14;;;;;;;;;;;20.20;28.60;;;;;;696337;28;1110;-80
2022/01/30 02:37:35;;;;;;;;;;;20.20;28.50;;;;;;696414;28;822;-79
2022/01/30 02:37:58;;;;;;;;;;;20.20;28.60;;;;;;695820;28;841;-80
2022/01/30 02:38:22;;;;;;;;;;;20.20;28.70;;;;;;693656;28;1321;-82
2022/01/30 02:38:43;;;;;;;;;;;20.20;28.60;;;;;;696398;28;1368;-84
2022/01/30 02:39:03;;;;;;;;;;;20.20;28.70;;;;;;696431;28;853;-83
2022/01/30 02:39:25;;;;;;;;;;;20.20;28.60;;;;;;696376;28;849;-82
2022/01/30 02:39:45;;;;;;;;;;;20.20;28.60;;;;;;696293;28;822;-82
2022/01/30 02:40:10;;;;;;;;;;;20.20;28.60;;;;;;693608;28;810;-81
2022/01/30 02:40:35;;;;;;;;;;;20.20;28.50;;;;;;693552;28;799;-83
2022/01/30 02:40:57;;;;;;;;;;;20.20;28.50;;;;;;693580;28;872;-82
2022/01/30 02:41:17;;;;;;;;;;;20.20;28.70;;;;;;693588;28;857;-84
2022/01/30 02:41:39;;;;;;;;;;;20.20;28.70;;;;;;693646;28;806;-83
2022/01/30 02:42:00;;;;;;;;;;;20.20;28.70;;;;;;695301;28;829;-86
2022/01/30 02:42:24;;;;;;;;;;;20.20;28.60;;;;;;698349;28;1324;-86